createdAt,value
2019-05-25T00:01:01.609Z,15.44
2019-05-25T00:03:30.219Z,15.39
2019-05-25T00:05:58.865Z,15.32
2019-05-25T00:08:27.539Z,15.33
2019-05-25T00:10:56.205Z,15.21
2019-05-25T00:13:24.849Z,15.09
2019-05-25T00:15:53.485Z,15.02
2019-05-25T00:18:22.061Z,14.99
2019-05-25T00:20:50.741Z,14.91
2019-05-25T00:23:19.298Z,14.88
2019-05-25T00:25:47.935Z,14.88
2019-05-25T00:28:16.571Z,14.88
2019-05-25T00:30:45.352Z,14.89
2019-05-25T00:33:13.975Z,14.86
2019-05-25T00:35:42.690Z,14.86
2019-05-25T00:38:11.266Z,14.85
2019-05-25T00:40:39.890Z,14.90
2019-05-25T00:43:08.579Z,14.87
2019-05-25T00:45:37.229Z,14.94
2019-05-25T00:48:05.894Z,14.97
2019-05-25T00:50:34.521Z,15.03
2019-05-25T00:53:03.214Z,14.99
2019-05-25T00:55:31.954Z,15.02
2019-05-25T00:58:00.522Z,15.11
2019-05-25T01:00:29.247Z,15.12
2019-05-25T01:02:57.904Z,15.13
2019-05-25T01:05:26.518Z,15.20
2019-05-25T01:07:55.753Z,15.19
2019-05-25T01:10:24.397Z,15.16
2019-05-25T01:12:53.047Z,15.19
2019-05-25T01:15:21.876Z,15.22
2019-05-25T01:17:51.227Z,15.21
2019-05-25T01:20:20.156Z,15.20
2019-05-25T01:22:49.017Z,15.18
2019-05-25T01:25:17.876Z,15.16
2019-05-25T01:27:46.510Z,15.16
2019-05-25T01:30:15.925Z,15.14
2019-05-25T01:32:44.566Z,15.14
2019-05-25T01:35:13.811Z,15.21
2019-05-25T01:37:42.446Z,15.09
2019-05-25T01:40:11.580Z,15.07
2019-05-25T01:42:40.222Z,15.10
2019-05-25T01:45:09.532Z,15.08
2019-05-25T01:47:38.175Z,15.03
2019-05-25T01:50:07.030Z,14.97
2019-05-25T01:52:35.610Z,14.96
2019-05-25T01:55:05.457Z,14.92
2019-05-25T01:57:34.136Z,14.73
2019-05-25T02:00:03.000Z,14.71
2019-05-25T02:02:31.642Z,14.71
2019-05-25T02:05:00.309Z,14.75
2019-05-25T02:07:28.875Z,14.81
2019-05-25T02:09:57.522Z,14.87
2019-05-25T02:12:26.145Z,14.88
2019-05-25T02:14:54.831Z,14.96
2019-05-25T02:17:23.469Z,15.02
2019-05-25T02:19:52.115Z,15.06
2019-05-25T02:22:20.969Z,15.10
2019-05-25T02:24:49.613Z,15.09
2019-05-25T02:27:18.270Z,14.90
2019-05-25T02:29:46.905Z,14.98
2019-05-25T02:32:15.545Z,14.98
2019-05-25T02:34:44.183Z,14.97
2019-05-25T02:37:12.983Z,14.92
2019-05-25T02:39:41.549Z,15.00
2019-05-25T02:42:10.193Z,14.94
2019-05-25T02:44:38.847Z,14.88
2019-05-25T02:47:07.484Z,14.90
2019-05-25T02:49:36.061Z,14.93
2019-05-25T02:52:04.703Z,14.93
2019-05-25T02:54:33.383Z,14.85
2019-05-25T02:57:02.026Z,14.89
2019-05-25T02:59:30.655Z,14.83
2019-05-25T03:01:59.708Z,14.85
2019-05-25T03:04:28.353Z,14.77
2019-05-25T03:06:57.920Z,14.78
2019-05-25T03:09:28.003Z,14.71
2019-05-25T03:11:59.529Z,14.73
2019-05-25T03:14:28.415Z,14.70
2019-05-25T03:16:57.052Z,14.76
2019-05-25T03:19:25.703Z,14.72
2019-05-25T03:21:54.276Z,14.74
2019-05-25T03:24:22.975Z,14.81
2019-05-25T03:26:51.618Z,14.94
2019-05-25T03:29:20.312Z,15.05
2019-05-25T03:31:48.925Z,15.12
2019-05-25T03:34:17.531Z,15.19
2019-05-25T03:36:46.117Z,15.27
2019-05-25T03:39:14.752Z,15.38
2019-05-25T03:41:43.405Z,15.41
2019-05-25T03:44:12.041Z,15.53
2019-05-25T03:46:40.689Z,15.57
2019-05-25T03:49:09.318Z,15.58
2019-05-25T03:51:38.056Z,15.65
2019-05-25T03:54:07.214Z,15.72
2019-05-25T03:56:35.853Z,15.79
2019-05-25T03:59:04.491Z,15.85
2019-05-25T04:01:33.067Z,15.92
2019-05-25T04:04:01.632Z,15.98
2019-05-25T04:06:30.317Z,16.08
2019-05-25T04:08:58.828Z,16.21
2019-05-25T04:11:27.393Z,16.36
2019-05-25T04:13:55.952Z,16.44
2019-05-25T04:16:24.599Z,16.61
2019-05-25T04:18:53.252Z,16.79
2019-05-25T04:21:21.815Z,17.02
2019-05-25T04:23:50.391Z,17.29
2019-05-25T04:26:22.486Z,17.45
2019-05-25T04:28:49.566Z,17.58
2019-05-25T04:31:18.140Z,17.71
2019-05-25T04:33:47.720Z,17.82
2019-05-25T04:36:16.382Z,17.95
2019-05-25T04:38:45.055Z,18.06
2019-05-25T04:41:13.729Z,18.13
2019-05-25T04:43:42.359Z,18.10
2019-05-25T04:46:11.099Z,18.03
2019-05-25T04:48:39.741Z,17.92
2019-05-25T04:51:08.387Z,17.83
2019-05-25T04:53:37.021Z,17.80
2019-05-25T04:56:05.653Z,17.80
2019-05-25T04:58:34.216Z,17.77
2019-05-25T05:01:02.861Z,17.86
2019-05-25T05:03:31.724Z,17.91
2019-05-25T05:06:00.287Z,18.01
2019-05-25T05:08:28.923Z,18.05
2019-05-25T05:10:57.566Z,18.09
2019-05-25T05:13:26.207Z,18.21
2019-05-25T05:15:54.846Z,18.31
2019-05-25T05:18:23.468Z,18.41
2019-05-25T05:20:52.239Z,18.72
2019-05-25T05:23:20.961Z,18.96
2019-05-25T05:25:49.589Z,19.23
2019-05-25T05:28:18.153Z,19.61
2019-05-25T05:30:46.862Z,20.00
2019-05-25T05:33:15.512Z,20.22
2019-05-25T05:35:45.156Z,20.62
2019-05-25T05:38:14.131Z,20.98
2019-05-25T05:40:43.173Z,21.19
2019-05-25T05:43:11.817Z,21.45
2019-05-25T05:45:42.831Z,21.87
2019-05-25T05:48:12.227Z,22.23
2019-05-25T05:50:41.823Z,22.57
2019-05-25T05:53:10.562Z,23.01
2019-05-25T05:55:39.145Z,23.38
2019-05-25T05:58:07.776Z,23.50
2019-05-25T06:00:36.441Z,23.69
2019-05-25T06:03:05.177Z,23.89
2019-05-25T06:05:33.802Z,24.04
2019-05-25T06:08:02.445Z,23.95
2019-05-25T06:10:31.182Z,23.81
2019-05-25T06:12:59.823Z,23.74
2019-05-25T06:15:28.461Z,23.70
2019-05-25T06:17:57.367Z,23.45
2019-05-25T06:20:26.097Z,23.12
2019-05-25T06:22:54.741Z,22.90
2019-05-25T06:25:23.383Z,22.62
2019-05-25T06:27:52.010Z,22.43
2019-05-25T06:30:21.255Z,22.44
2019-05-25T06:32:49.910Z,22.73
2019-05-25T06:35:20.916Z,22.73
2019-05-25T06:37:49.657Z,22.61
2019-05-25T06:40:18.693Z,22.47
2019-05-25T06:42:47.335Z,22.71
2019-05-25T06:45:16.273Z,23.00
2019-05-25T06:47:44.920Z,23.30
2019-05-25T06:50:13.767Z,23.80
2019-05-25T06:52:42.492Z,24.39
2019-05-25T06:55:11.274Z,24.86
2019-05-25T06:57:43.723Z,25.33
2019-05-25T07:00:10.734Z,25.97
2019-05-25T07:02:39.355Z,26.52
2019-05-25T07:05:08.898Z,26.65
2019-05-25T07:07:37.757Z,26.58
2019-05-25T07:10:09.438Z,26.13
2019-05-25T07:12:38.116Z,25.64
2019-05-25T07:15:07.945Z,25.50
2019-05-25T07:17:36.589Z,25.22
2019-05-25T07:20:06.899Z,24.66
2019-05-25T07:22:35.557Z,24.47
2019-05-25T07:25:05.383Z,24.36
2019-05-25T07:27:34.240Z,24.23
2019-05-25T07:30:03.063Z,24.27
2019-05-25T07:32:31.709Z,24.00
2019-05-25T07:35:00.336Z,23.96
2019-05-25T07:37:28.917Z,24.30
2019-05-25T07:39:57.470Z,24.62
2019-05-25T07:42:26.108Z,25.24
2019-05-25T07:44:54.980Z,26.39
2019-05-25T07:47:23.599Z,28.47
2019-05-25T07:49:52.168Z,30.72
2019-05-25T07:52:20.738Z,32.02
2019-05-25T07:54:49.375Z,32.53
2019-05-25T07:57:18.004Z,31.97
2019-05-25T07:59:46.652Z,31.55
2019-05-25T08:02:15.470Z,31.00
2019-05-25T08:04:44.108Z,29.93
2019-05-25T08:07:12.735Z,29.27
2019-05-25T08:09:41.375Z,29.47
2019-05-25T08:12:09.992Z,32.64
2019-05-25T08:14:38.642Z,36.20
2019-05-25T08:17:07.277Z,38.44
2019-05-25T08:19:35.920Z,39.65
2019-05-25T08:22:04.645Z,40.71
2019-05-25T08:24:33.323Z,40.21
2019-05-25T08:27:01.950Z,40.18
2019-05-25T08:29:30.512Z,41.59
2019-05-25T08:31:59.164Z,43.00
2019-05-25T08:34:27.796Z,44.79
2019-05-25T08:36:56.448Z,46.28
2019-05-25T08:39:25.083Z,46.80
2019-05-25T08:41:53.605Z,47.17
2019-05-25T08:44:22.248Z,44.82
2019-05-25T08:46:50.883Z,43.51
2019-05-25T08:49:19.551Z,41.75
2019-05-25T08:51:48.169Z,38.61
2019-05-25T08:54:16.815Z,36.63
2019-05-25T08:56:45.445Z,34.81
2019-05-25T08:59:14.018Z,35.46
2019-05-25T09:01:42.664Z,34.37
2019-05-25T09:04:11.357Z,32.84
2019-05-25T09:06:40.026Z,31.58
2019-05-25T09:09:09.009Z,30.33
2019-05-25T09:11:37.719Z,29.86
2019-05-25T09:14:06.317Z,29.27
2019-05-25T09:16:34.965Z,29.24
2019-05-25T09:19:03.621Z,29.57
2019-05-25T09:21:32.258Z,30.34
2019-05-25T09:24:01.111Z,31.28
2019-05-25T09:26:29.783Z,32.28
2019-05-25T09:29:04.678Z,32.32
2019-05-25T09:31:29.086Z,31.44
2019-05-25T09:33:57.711Z,31.24
2019-05-25T09:36:26.355Z,30.94
2019-05-25T09:38:54.991Z,30.93
2019-05-25T09:41:23.701Z,30.61
2019-05-25T09:43:52.330Z,29.95
2019-05-25T09:46:20.949Z,29.13
2019-05-25T09:48:49.594Z,28.32
2019-05-25T09:51:18.226Z,27.69
2019-05-25T09:53:46.891Z,27.31
2019-05-25T09:56:15.524Z,28.85
2019-05-25T09:58:44.169Z,32.54
2019-05-25T10:01:12.801Z,34.76
2019-05-25T10:03:41.429Z,39.29
2019-05-25T10:06:13.087Z,39.13
2019-05-25T10:08:40.518Z,36.62
2019-05-25T10:11:09.145Z,33.93
2019-05-25T10:13:37.787Z,31.79
2019-05-25T10:16:06.519Z,29.96
2019-05-25T10:18:35.170Z,28.22
2019-05-25T10:21:04.002Z,27.10
2019-05-25T10:23:32.655Z,26.27
2019-05-25T10:26:01.275Z,25.86
2019-05-25T10:28:29.905Z,25.52
2019-05-25T10:30:58.546Z,25.51
2019-05-25T10:33:27.180Z,26.88
2019-05-25T10:35:55.811Z,30.34
2019-05-25T10:38:24.429Z,35.64
2019-05-25T10:40:53.077Z,40.11
2019-05-25T10:43:21.928Z,43.73
2019-05-25T10:45:50.584Z,45.76
2019-05-25T10:48:19.204Z,46.05
2019-05-25T10:50:47.846Z,45.35
2019-05-25T10:53:16.477Z,44.33
2019-05-25T10:55:45.112Z,43.34
2019-05-25T10:58:13.747Z,41.51
2019-05-25T11:00:42.454Z,39.33
2019-05-25T11:03:11.113Z,37.46
2019-05-25T11:05:39.756Z,36.36
2019-05-25T11:08:08.390Z,35.12
2019-05-25T11:10:37.037Z,33.34
2019-05-25T11:13:05.699Z,32.33
2019-05-25T11:15:34.346Z,31.73
2019-05-25T11:18:02.986Z,31.48
2019-05-25T11:20:31.615Z,31.50
2019-05-25T11:23:00.380Z,31.75
2019-05-25T11:25:29.021Z,31.59
2019-05-25T11:27:57.648Z,31.29
2019-05-25T11:30:26.372Z,30.65
2019-05-25T11:32:55.246Z,30.29
2019-05-25T11:35:24.606Z,29.93
2019-05-25T11:37:53.241Z,29.77
2019-05-25T11:40:23.330Z,29.30
2019-05-25T11:42:52.009Z,28.77
2019-05-25T11:45:21.172Z,28.19
2019-05-25T11:47:49.823Z,27.82
2019-05-25T11:50:18.761Z,27.28
2019-05-25T11:52:47.499Z,27.18
2019-05-25T11:55:17.824Z,27.13
2019-05-25T11:57:46.463Z,27.19
2019-05-25T12:00:25.034Z,27.18
2019-05-25T12:02:48.313Z,27.34
2019-05-25T12:05:16.961Z,27.29
2019-05-25T12:07:45.678Z,27.14
2019-05-25T12:10:15.941Z,26.84
2019-05-25T12:12:44.577Z,26.64
2019-05-25T12:15:13.479Z,26.58
2019-05-25T12:17:42.111Z,26.46
2019-05-25T12:20:11.040Z,26.33
2019-05-25T12:22:39.692Z,26.13
2019-05-25T12:25:09.207Z,25.97
2019-05-25T12:27:37.852Z,25.84
2019-05-25T12:30:07.279Z,25.77
2019-05-25T12:32:35.949Z,25.54
2019-05-25T12:35:06.385Z,25.38
2019-05-25T12:37:35.200Z,25.18
2019-05-25T12:40:05.495Z,24.93
2019-05-25T12:42:34.209Z,24.79
2019-05-25T12:45:02.939Z,24.71
2019-05-25T12:47:31.656Z,24.59
2019-05-25T12:50:00.423Z,24.43
2019-05-25T12:52:29.163Z,24.40
2019-05-25T12:54:57.868Z,24.33
2019-05-25T12:57:26.499Z,24.35
2019-05-25T12:59:55.122Z,24.35
2019-05-25T13:05:16.057Z,24.31
2019-05-25T13:07:44.697Z,24.34
2019-05-25T13:10:13.730Z,24.40
2019-05-25T13:12:42.402Z,24.43
2019-05-25T13:15:11.202Z,24.42
2019-05-25T13:17:39.866Z,24.48
2019-05-25T13:20:08.700Z,24.51
2019-05-25T13:22:37.338Z,24.60
2019-05-25T13:25:07.461Z,24.66
2019-05-25T13:27:36.183Z,24.72
2019-05-25T13:30:09.583Z,24.79
2019-05-25T13:32:38.202Z,25.09
2019-05-25T13:35:08.035Z,25.10
2019-05-25T13:37:36.677Z,24.96
2019-05-25T13:40:06.782Z,24.72
2019-05-25T13:42:35.442Z,24.57
2019-05-25T13:45:05.622Z,24.53
2019-05-25T13:47:34.264Z,24.69
2019-05-25T13:50:03.296Z,24.70
2019-05-25T13:52:31.947Z,24.76
2019-05-25T13:55:00.586Z,24.75
2019-05-25T13:57:29.269Z,24.69
2019-05-25T13:59:57.914Z,24.63
2019-05-25T14:02:26.544Z,24.55
2019-05-25T14:04:55.282Z,24.56
2019-05-25T14:07:23.923Z,24.52
2019-05-25T14:09:52.571Z,24.45
2019-05-25T14:12:21.468Z,24.40
2019-05-25T14:14:50.123Z,24.30
2019-05-25T14:17:18.758Z,24.24
2019-05-25T14:19:47.449Z,24.18
2019-05-25T14:22:16.110Z,24.10
2019-05-25T14:24:44.761Z,24.00
2019-05-25T14:27:13.423Z,23.96
2019-05-25T14:29:42.132Z,24.01
2019-05-25T14:32:10.791Z,24.06
2019-05-25T14:34:39.424Z,24.20
2019-05-25T14:37:08.282Z,24.39
2019-05-25T14:39:36.933Z,24.50
2019-05-25T14:42:05.586Z,24.62
2019-05-25T14:44:34.230Z,24.71
2019-05-25T14:47:02.863Z,24.69
2019-05-25T14:49:31.505Z,24.66
2019-05-25T14:52:00.145Z,24.60
2019-05-25T14:54:28.789Z,24.48
2019-05-25T14:56:57.423Z,24.30
2019-05-25T14:59:26.125Z,24.01
2019-05-25T15:02:02.353Z,23.77
2019-05-25T15:04:25.127Z,23.57
2019-05-25T15:06:53.846Z,23.33
2019-05-25T15:09:22.512Z,23.14
2019-05-25T15:11:53.797Z,22.96
2019-05-25T15:14:21.562Z,22.95
2019-05-25T15:16:50.237Z,23.02
2019-05-25T15:19:19.024Z,23.22
2019-05-25T15:21:47.750Z,23.36
2019-05-25T15:24:16.393Z,23.50
2019-05-25T15:26:45.210Z,23.68
2019-05-25T15:29:13.966Z,23.75
2019-05-25T15:31:42.596Z,23.74
2019-05-25T15:34:11.368Z,23.69
2019-05-25T15:36:41.626Z,23.51
2019-05-25T15:39:10.277Z,23.42
2019-05-25T15:41:38.917Z,23.32
2019-05-25T15:44:07.579Z,23.17
2019-05-25T15:46:36.238Z,23.04
2019-05-25T15:49:04.874Z,22.92
2019-05-25T15:51:33.530Z,22.81
2019-05-25T15:54:02.220Z,22.70
2019-05-25T15:56:30.958Z,22.61
2019-05-25T15:58:59.593Z,22.51
2019-05-25T16:01:28.403Z,22.52
2019-05-25T16:03:57.117Z,22.50
2019-05-25T16:06:25.757Z,22.43
2019-05-25T16:08:55.293Z,22.35
2019-05-25T16:11:23.928Z,22.29
2019-05-25T16:13:52.631Z,22.24
2019-05-25T16:16:29.639Z,22.14
2019-05-25T16:18:51.787Z,22.06
2019-05-25T16:21:20.419Z,21.92
2019-05-25T16:23:49.069Z,21.81
2019-05-25T16:26:17.729Z,21.71
2019-05-25T16:28:46.412Z,21.50
2019-05-25T16:31:15.056Z,21.43
2019-05-25T16:33:43.707Z,21.37
2019-05-25T16:36:12.354Z,21.31
2019-05-25T16:38:40.993Z,21.27
2019-05-25T16:41:09.647Z,21.27
2019-05-25T16:43:38.304Z,21.30
2019-05-25T16:46:07.091Z,21.35
2019-05-25T16:48:35.730Z,21.36
2019-05-25T16:51:04.381Z,21.44
2019-05-25T16:53:33.027Z,21.48
2019-05-25T16:56:01.663Z,21.48
2019-05-25T16:58:30.421Z,21.52
2019-05-25T17:00:59.675Z,21.45
2019-05-25T17:03:29.445Z,21.39
2019-05-25T17:05:58.101Z,21.32
2019-05-25T17:08:26.877Z,21.22
2019-05-25T17:10:55.527Z,21.09
2019-05-25T17:13:24.166Z,20.98
2019-05-25T17:15:52.781Z,20.88
2019-05-25T17:18:21.410Z,20.78
2019-05-25T17:20:50.072Z,20.64
2019-05-25T17:23:18.702Z,20.55
2019-05-25T17:25:47.312Z,20.43
2019-05-25T17:28:15.954Z,20.34
2019-05-25T17:30:46.952Z,20.24
2019-05-25T17:33:15.708Z,20.16
2019-05-25T17:35:45.141Z,20.07
2019-05-25T17:38:13.876Z,20.00
2019-05-25T17:40:42.505Z,19.91
2019-05-25T17:43:11.184Z,19.86
2019-05-25T17:45:39.806Z,19.76
2019-05-25T17:48:08.456Z,19.70
2019-05-25T17:50:38.554Z,19.60
2019-05-25T17:53:07.186Z,19.60
2019-05-25T17:55:35.901Z,19.49
2019-05-25T17:58:04.861Z,19.41
2019-05-25T18:00:42.105Z,19.33
2019-05-25T18:03:10.834Z,19.28
2019-05-25T18:05:39.483Z,19.21
2019-05-25T18:08:08.417Z,19.13
2019-05-25T18:10:51.874Z,19.09
2019-05-25T18:13:07.550Z,19.01
2019-05-25T18:15:36.181Z,18.94
2019-05-25T18:18:06.275Z,18.86
2019-05-25T18:20:34.903Z,18.82
2019-05-25T18:23:03.765Z,18.75
2019-05-25T18:25:32.417Z,18.70
2019-05-25T18:28:01.121Z,18.62
2019-05-25T18:30:30.361Z,18.55
2019-05-25T18:32:59.068Z,18.49
2019-05-25T18:35:27.834Z,18.44
2019-05-25T18:37:56.460Z,18.38
2019-05-25T18:40:25.320Z,18.31
2019-05-25T18:42:53.956Z,18.26
2019-05-25T18:45:22.623Z,18.21
2019-05-25T18:47:51.250Z,18.19
2019-05-25T18:50:20.609Z,18.14
2019-05-25T18:52:49.243Z,18.06
2019-05-25T18:55:18.547Z,18.00
2019-05-25T18:57:47.222Z,17.94
2019-05-25T19:00:16.361Z,17.78
2019-05-25T19:02:45.069Z,17.69
2019-05-25T19:05:15.184Z,17.65
2019-05-25T19:07:43.832Z,17.54
2019-05-25T19:10:13.110Z,17.48
2019-05-25T19:12:41.795Z,17.44
2019-05-25T19:15:11.435Z,17.27
2019-05-25T19:17:40.170Z,17.27
2019-05-25T19:20:09.748Z,17.15
2019-05-25T19:22:38.525Z,17.07
2019-05-25T19:25:08.655Z,16.97
2019-05-25T19:27:37.374Z,16.92
2019-05-25T19:30:07.941Z,16.77
2019-05-25T19:32:36.585Z,16.87
2019-05-25T19:35:07.497Z,16.77
2019-05-25T19:37:36.144Z,16.72
2019-05-25T19:40:09.569Z,16.72
2019-05-25T19:42:38.385Z,16.66
2019-05-25T19:45:08.915Z,16.69
2019-05-25T19:47:37.574Z,16.66
2019-05-25T19:50:09.733Z,16.50
2019-05-25T19:52:38.432Z,16.52
2019-05-25T19:55:07.677Z,16.45
2019-05-25T19:57:36.295Z,16.40
2019-05-25T20:00:09.534Z,16.34
2019-05-25T20:02:38.425Z,16.29
2019-05-25T20:05:16.514Z,16.28
2019-05-25T20:07:38.037Z,16.30
2019-05-25T20:10:08.576Z,16.24
2019-05-25T20:12:37.213Z,16.18
2019-05-25T20:15:09.748Z,16.09
2019-05-25T20:17:38.389Z,16.01
2019-05-25T20:20:08.825Z,16.06
2019-05-25T20:22:37.466Z,15.96
2019-05-25T20:25:07.032Z,15.81
2019-05-25T20:27:35.672Z,15.76
2019-05-25T20:30:06.793Z,15.83
2019-05-25T20:32:35.683Z,15.80
2019-05-25T20:35:06.047Z,15.68
2019-05-25T20:37:34.679Z,15.63
2019-05-25T20:40:04.275Z,15.69
2019-05-25T20:42:32.943Z,15.63
2019-05-25T20:45:01.580Z,15.62
2019-05-25T20:47:30.263Z,15.58
2019-05-25T20:49:58.899Z,15.44
2019-05-25T20:52:27.581Z,15.39
2019-05-25T20:54:56.207Z,15.40
2019-05-25T20:57:24.875Z,15.33
2019-05-25T20:59:53.449Z,15.33
2019-05-25T21:02:22.085Z,15.21
2019-05-25T21:04:50.751Z,15.18
2019-05-25T21:07:19.456Z,15.18
2019-05-25T21:09:48.085Z,15.18
2019-05-25T21:12:16.718Z,15.14
2019-05-25T21:14:45.379Z,15.07
2019-05-25T21:17:14.020Z,15.04
2019-05-25T21:19:42.659Z,14.92
2019-05-25T21:22:11.305Z,15.00
2019-05-25T21:24:39.864Z,14.90
2019-05-25T21:27:08.501Z,14.89
2019-05-25T21:29:37.100Z,14.82
2019-05-25T21:32:05.759Z,14.90
2019-05-25T21:34:34.220Z,14.86
2019-05-25T21:37:02.855Z,14.83
2019-05-25T21:39:31.515Z,14.72
2019-05-25T21:42:00.073Z,14.73
2019-05-25T21:44:28.638Z,14.68
2019-05-25T21:46:57.325Z,14.70
2019-05-25T21:49:25.961Z,14.70
2019-05-25T21:51:54.583Z,14.66
2019-05-25T21:54:23.235Z,14.64
2019-05-25T21:56:51.910Z,14.60
2019-05-25T21:59:20.588Z,14.67
2019-05-25T22:01:49.211Z,14.66
2019-05-25T22:04:17.877Z,14.60
2019-05-25T22:06:46.513Z,14.53
2019-05-25T22:09:15.138Z,14.47
2019-05-25T22:11:43.852Z,14.58
2019-05-25T22:14:12.495Z,14.47
2019-05-25T22:16:41.066Z,14.45
2019-05-25T22:19:09.627Z,14.47
2019-05-25T22:21:38.280Z,14.40
2019-05-25T22:24:06.906Z,14.49
2019-05-25T22:26:35.462Z,14.46
2019-05-25T22:29:04.281Z,14.36
2019-05-25T22:31:32.962Z,14.33
2019-05-25T22:34:01.661Z,14.27
2019-05-25T22:36:39.727Z,14.29
2019-05-25T22:39:00.645Z,14.37
2019-05-25T22:41:29.656Z,14.34
2019-05-25T22:43:58.336Z,14.27
2019-05-25T22:46:27.049Z,14.23
2019-05-25T22:48:56.023Z,14.20
2019-05-25T22:51:24.651Z,14.18
2019-05-25T22:53:53.290Z,14.22
2019-05-25T22:56:21.927Z,14.11
2019-05-25T22:58:51.510Z,14.14
2019-05-25T23:01:20.571Z,14.06
2019-05-25T23:03:49.246Z,14.06
2019-05-25T23:06:17.803Z,14.08
2019-05-25T23:08:46.453Z,14.07
2019-05-25T23:11:16.945Z,14.08
2019-05-25T23:13:45.565Z,14.12
2019-05-25T23:16:14.208Z,14.05
2019-05-25T23:18:42.835Z,14.02
2019-05-25T23:21:11.825Z,14.09
2019-05-25T23:23:40.457Z,14.06
2019-05-25T23:26:09.983Z,14.04
2019-05-25T23:28:38.558Z,13.98
2019-05-25T23:31:09.175Z,13.94
2019-05-25T23:33:38.792Z,13.86
2019-05-25T23:36:07.636Z,13.78
2019-05-25T23:38:36.693Z,13.82
2019-05-25T23:41:05.428Z,13.79
2019-05-25T23:43:35.719Z,13.80
2019-05-25T23:46:04.355Z,13.76
2019-05-25T23:48:33.374Z,13.76
2019-05-25T23:51:02.249Z,13.69
2019-05-25T23:53:30.737Z,13.60
2019-05-25T23:55:59.783Z,13.62
2019-05-25T23:58:28.796Z,13.64
